createdAt,value
2017-06-08T00:00:19.265Z,1010.66
2017-06-08T00:01:19.272Z,1010.62
2017-06-08T00:02:19.280Z,1010.69
2017-06-08T00:03:19.290Z,1010.62
2017-06-08T00:04:19.298Z,1010.63
2017-06-08T00:05:19.307Z,1010.58
2017-06-08T00:06:19.316Z,1010.59
2017-06-08T00:07:19.324Z,1010.63
2017-06-08T00:08:19.332Z,1010.62
2017-06-08T00:09:19.341Z,1010.61
2017-06-08T00:10:19.350Z,1010.63
2017-06-08T00:11:19.360Z,1010.64
2017-06-08T00:12:19.366Z,1010.61
2017-06-08T00:13:19.377Z,1010.63
2017-06-08T00:14:19.384Z,1010.63
2017-06-08T00:15:19.392Z,1010.63
2017-06-08T00:16:19.401Z,1010.65
2017-06-08T00:17:19.459Z,1010.63
2017-06-08T00:18:19.418Z,1010.6
2017-06-08T00:19:19.425Z,1010.55
2017-06-08T00:20:19.434Z,1010.6
2017-06-08T00:21:19.443Z,1010.6
2017-06-08T00:22:19.452Z,1010.59
2017-06-08T00:23:19.460Z,1010.56
2017-06-08T00:24:19.468Z,1010.61
2017-06-08T00:25:19.478Z,1010.56
2017-06-08T00:26:19.486Z,1010.61
2017-06-08T00:27:19.495Z,1010.6
2017-06-08T00:28:19.503Z,1010.58
2017-06-08T00:29:19.512Z,1010.58
2017-06-08T00:30:19.520Z,1010.57
2017-06-08T00:31:19.529Z,1010.56
2017-06-08T00:32:19.539Z,1010.56
2017-06-08T00:33:19.547Z,1010.51
2017-06-08T00:34:19.554Z,1010.53
2017-06-08T00:35:19.562Z,1010.5
2017-06-08T00:36:19.574Z,1010.5
2017-06-08T00:37:19.577Z,1010.51
2017-06-08T00:38:19.588Z,1010.53
2017-06-08T00:39:19.595Z,1010.53
2017-06-08T00:40:19.605Z,1010.51
2017-06-08T00:41:19.613Z,1010.54
2017-06-08T00:42:19.671Z,1010.46
2017-06-08T00:43:19.630Z,1010.51
2017-06-08T00:44:19.640Z,1010.53
2017-06-08T00:45:19.646Z,1010.53
2017-06-08T00:46:19.706Z,1010.55
2017-06-08T00:47:19.665Z,1010.55
2017-06-08T00:48:19.672Z,1010.55
2017-06-08T00:49:19.681Z,1010.54
2017-06-08T00:50:19.689Z,1010.54
2017-06-08T00:51:19.698Z,1010.57
2017-06-08T00:52:19.707Z,1010.55
2017-06-08T00:53:19.783Z,1010.53
2017-06-08T00:54:19.723Z,1010.55
2017-06-08T00:55:19.784Z,1010.56
2017-06-08T00:56:19.741Z,1010.54
2017-06-08T00:57:19.751Z,1010.52
2017-06-08T00:58:19.758Z,1010.54
2017-06-08T00:59:19.766Z,1010.58
2017-06-08T01:00:19.776Z,1010.54
2017-06-08T01:01:19.784Z,1010.53
2017-06-08T01:02:19.792Z,1010.55
2017-06-08T01:03:19.800Z,1010.53
2017-06-08T01:04:19.808Z,1010.56
2017-06-08T01:05:19.818Z,1010.54
2017-06-08T01:06:19.826Z,1010.54
2017-06-08T01:07:19.834Z,1010.53
2017-06-08T01:08:19.844Z,1010.56
2017-06-08T01:09:19.851Z,1010.63
2017-06-08T01:10:19.909Z,1010.58
2017-06-08T01:11:19.873Z,1010.6
2017-06-08T01:12:19.876Z,1010.56
2017-06-08T01:13:19.890Z,1010.63
2017-06-08T01:14:19.944Z,1010.63
2017-06-08T01:15:19.902Z,1010.62
2017-06-08T01:16:19.912Z,1010.66
2017-06-08T01:17:19.919Z,1010.65
2017-06-08T01:18:19.927Z,1010.67
2017-06-08T01:19:19.935Z,1010.71
2017-06-08T01:20:19.945Z,1010.68
2017-06-08T01:21:19.953Z,1010.67
2017-06-08T01:22:19.961Z,1010.67
2017-06-08T01:23:19.971Z,1010.66
2017-06-08T01:24:19.979Z,1010.65
2017-06-08T01:25:19.987Z,1010.65
2017-06-08T01:26:19.995Z,1010.69
2017-06-08T01:27:20.004Z,1010.69
2017-06-08T01:28:20.012Z,1010.65
2017-06-08T01:29:20.020Z,1010.65
2017-06-08T01:30:20.030Z,1010.68
2017-06-08T01:31:20.039Z,1010.66
2017-06-08T01:32:20.046Z,1010.64
2017-06-08T01:33:20.055Z,1010.68
2017-06-08T01:34:20.113Z,1010.71
2017-06-08T01:35:20.072Z,1010.66
2017-06-08T01:36:20.080Z,1010.68
2017-06-08T01:37:20.088Z,1010.73
2017-06-08T01:38:20.097Z,1010.66
2017-06-08T01:39:20.105Z,1010.72
2017-06-08T01:40:20.114Z,1010.68
2017-06-08T01:41:20.122Z,1010.64
2017-06-08T01:42:20.129Z,1010.63
2017-06-08T01:43:20.138Z,1010.67
2017-06-08T01:44:20.147Z,1010.65
2017-06-08T01:45:20.156Z,1010.65
2017-06-08T01:46:20.164Z,1010.63
2017-06-08T01:47:20.172Z,1010.64
2017-06-08T01:48:20.181Z,1010.66
2017-06-08T01:49:20.190Z,1010.64
2017-06-08T01:50:20.197Z,1010.68
2017-06-08T01:51:20.206Z,1010.66
2017-06-08T01:52:20.216Z,1010.64
2017-06-08T01:53:20.223Z,1010.71
2017-06-08T01:54:20.230Z,1010.66
2017-06-08T01:55:20.239Z,1010.67
2017-06-08T01:56:20.247Z,1010.68
2017-06-08T01:57:20.306Z,1010.7
2017-06-08T01:58:20.264Z,1010.71
2017-06-08T01:59:20.273Z,1010.77
2017-06-08T02:00:20.363Z,1010.77
2017-06-08T02:01:20.290Z,1010.67
2017-06-08T02:02:20.299Z,1010.69
2017-06-08T02:03:20.307Z,1010.73
2017-06-08T02:04:20.314Z,1010.77
2017-06-08T02:05:20.373Z,1010.71
2017-06-08T02:06:20.332Z,1010.8
2017-06-08T02:07:20.340Z,1010.76
2017-06-08T02:08:20.349Z,1010.7
2017-06-08T02:09:20.356Z,1010.7
2017-06-08T02:10:20.364Z,1010.68
2017-06-08T02:11:20.378Z,1010.7
2017-06-08T02:12:20.381Z,1010.69
2017-06-08T02:13:20.389Z,1010.72
2017-06-08T02:14:20.396Z,1010.67
2017-06-08T02:15:20.407Z,1010.71
2017-06-08T02:16:20.414Z,1010.71
2017-06-08T02:17:20.424Z,1010.75
2017-06-08T02:18:20.430Z,1010.72
2017-06-08T02:19:20.441Z,1010.71
2017-06-08T02:20:20.449Z,1010.72
2017-06-08T02:21:20.511Z,1010.74
2017-06-08T02:22:20.466Z,1010.76
2017-06-08T02:23:20.472Z,1010.74
2017-06-08T02:24:20.482Z,1010.73
2017-06-08T02:25:20.490Z,1010.74
2017-06-08T02:26:20.502Z,1010.77
2017-06-08T02:27:20.508Z,1010.76
2017-06-08T02:28:20.516Z,1010.81
2017-06-08T02:29:20.524Z,1010.86
2017-06-08T02:30:20.534Z,1010.79
2017-06-08T02:31:20.541Z,1010.82
2017-06-08T02:32:20.551Z,1010.83
2017-06-08T02:33:20.559Z,1010.79
2017-06-08T02:34:20.568Z,1010.81
2017-06-08T02:35:20.576Z,1010.85
2017-06-08T02:36:20.586Z,1010.85
2017-06-08T02:37:20.592Z,1010.85
2017-06-08T02:38:20.601Z,1010.9
2017-06-08T02:39:20.659Z,1010.84
2017-06-08T02:40:20.618Z,1010.86
2017-06-08T02:41:20.627Z,1010.88
2017-06-08T02:42:20.635Z,1010.89
2017-06-08T02:43:20.643Z,1010.84
2017-06-08T02:44:20.652Z,1010.84
2017-06-08T02:45:20.660Z,1010.83
2017-06-08T02:46:20.668Z,1010.81
2017-06-08T02:47:20.678Z,1010.82
2017-06-08T02:48:20.686Z,1010.87
2017-06-08T02:49:20.694Z,1010.83
2017-06-08T02:50:20.702Z,1010.78
2017-06-08T02:51:20.712Z,1010.86
2017-06-08T02:52:20.721Z,1010.85
2017-06-08T02:53:20.729Z,1010.9
2017-06-08T02:54:20.736Z,1010.83
2017-06-08T02:55:20.746Z,1010.86
2017-06-08T02:56:20.754Z,1010.87
2017-06-08T02:57:20.765Z,1010.91
2017-06-08T02:58:20.771Z,1010.87
2017-06-08T02:59:20.780Z,1010.81
2017-06-08T03:00:20.788Z,1010.85
2017-06-08T03:01:20.797Z,1010.91
2017-06-08T03:02:20.857Z,1010.93
2017-06-08T03:03:20.814Z,1010.82
2017-06-08T03:04:20.824Z,1010.87
2017-06-08T03:05:20.831Z,1010.89
2017-06-08T03:06:20.843Z,1010.91
2017-06-08T03:07:20.849Z,1010.87
2017-06-08T03:08:20.858Z,1010.9
2017-06-08T03:09:20.865Z,1010.9
2017-06-08T03:10:20.875Z,1010.89
2017-06-08T03:11:20.885Z,1010.87
2017-06-08T03:12:20.892Z,1010.81
2017-06-08T03:13:20.900Z,1010.82
2017-06-08T03:14:20.909Z,1010.81
2017-06-08T03:15:20.919Z,1010.86
2017-06-08T03:16:20.925Z,1010.8
2017-06-08T03:17:20.935Z,1010.79
2017-06-08T03:18:20.942Z,1010.8
2017-06-08T03:19:20.951Z,1010.77
2017-06-08T03:20:20.963Z,1010.82
2017-06-08T03:21:20.969Z,1010.76
2017-06-08T03:22:20.977Z,1010.77
2017-06-08T03:23:20.987Z,1010.81
2017-06-08T03:24:20.993Z,1010.79
2017-06-08T03:25:21.004Z,1010.85
2017-06-08T03:26:21.012Z,1010.84
2017-06-08T03:27:21.020Z,1010.85
2017-06-08T03:28:21.028Z,1010.8
2017-06-08T03:29:21.035Z,1010.78
2017-06-08T03:30:21.046Z,1010.77
2017-06-08T03:31:21.055Z,1010.76
2017-06-08T03:32:21.063Z,1010.76
2017-06-08T03:33:21.071Z,1010.84
2017-06-08T03:34:21.080Z,1010.79
2017-06-08T03:35:21.086Z,1010.79
2017-06-08T03:36:21.097Z,1010.76
2017-06-08T03:37:21.105Z,1010.81
2017-06-08T03:38:21.114Z,1010.86
2017-06-08T03:39:21.124Z,1010.85
2017-06-08T03:40:21.132Z,1010.82
2017-06-08T03:41:21.440Z,1010.85
2017-06-08T03:42:21.150Z,1010.87
2017-06-08T03:43:21.158Z,1010.85
2017-06-08T03:44:21.165Z,1010.86
2017-06-08T03:45:21.174Z,1010.84
2017-06-08T03:46:21.183Z,1010.89
2017-06-08T03:47:21.190Z,1010.83
2017-06-08T03:48:21.200Z,1010.79
2017-06-08T03:49:21.208Z,1010.87
2017-06-08T03:50:21.216Z,1010.87
2017-06-08T03:51:21.224Z,1010.85
2017-06-08T03:52:21.233Z,1010.87
2017-06-08T03:53:21.243Z,1010.91
2017-06-08T03:54:21.251Z,1010.9
2017-06-08T03:55:21.259Z,1010.94
2017-06-08T03:56:21.267Z,1010.93
2017-06-08T03:57:21.276Z,1010.87
2017-06-08T03:58:21.283Z,1010.92
2017-06-08T03:59:21.292Z,1010.94
2017-06-08T04:00:21.301Z,1010.92
2017-06-08T04:01:21.309Z,1010.9
2017-06-08T04:02:21.316Z,1010.9
2017-06-08T04:03:21.326Z,1010.93
2017-06-08T04:04:21.338Z,1010.92
2017-06-08T04:05:21.345Z,1010.94
2017-06-08T04:06:21.402Z,1010.87
2017-06-08T04:07:21.360Z,1010.91
2017-06-08T04:08:21.369Z,1010.92
2017-06-08T04:09:21.378Z,1010.91
2017-06-08T04:10:21.386Z,1010.92
2017-06-08T04:11:21.395Z,1010.88
2017-06-08T04:12:21.402Z,1010.87
2017-06-08T04:13:21.410Z,1010.88
2017-06-08T04:14:21.420Z,1010.89
2017-06-08T04:15:21.430Z,1010.86
2017-06-08T04:16:21.469Z,1010.9
2017-06-08T04:17:21.444Z,1010.86
2017-06-08T04:18:21.453Z,1010.86
2017-06-08T04:19:21.461Z,1010.88
2017-06-08T04:20:21.468Z,1010.85
2017-06-08T04:21:21.479Z,1010.8
2017-06-08T04:22:21.537Z,1010.79
2017-06-08T04:23:21.532Z,1010.82
2017-06-08T04:24:21.503Z,1010.82
2017-06-08T04:25:21.513Z,1010.78
2017-06-08T04:26:21.520Z,1010.76
2017-06-08T04:27:21.529Z,1010.72
2017-06-08T04:28:21.536Z,1010.71
2017-06-08T04:29:21.544Z,1010.71
2017-06-08T04:30:21.553Z,1010.73
2017-06-08T04:31:21.563Z,1010.73
2017-06-08T04:32:21.571Z,1010.74
2017-06-08T04:33:21.579Z,1010.74
2017-06-08T04:34:21.587Z,1010.75
2017-06-08T04:35:21.604Z,1010.75
2017-06-08T04:36:21.603Z,1010.71
2017-06-08T04:37:21.611Z,1010.68
2017-06-08T04:38:21.620Z,1010.64
2017-06-08T04:39:21.627Z,1010.66
2017-06-08T04:40:21.638Z,1010.65
2017-06-08T04:41:21.644Z,1010.61
2017-06-08T04:42:21.653Z,1010.56
2017-06-08T04:43:21.661Z,1010.6
2017-06-08T04:44:21.671Z,1010.6
2017-06-08T04:45:21.678Z,1010.62
2017-06-08T04:46:21.684Z,1010.6
2017-06-08T04:47:21.694Z,1010.6
2017-06-08T04:48:21.704Z,1010.59
2017-06-08T04:49:21.711Z,1010.56
2017-06-08T04:50:21.718Z,1010.54
2017-06-08T04:51:21.728Z,1010.54
2017-06-08T04:52:21.736Z,1010.53
2017-06-08T04:53:21.742Z,1010.54
2017-06-08T04:54:21.751Z,1010.54
2017-06-08T04:55:21.760Z,1010.59
2017-06-08T04:56:21.769Z,1010.58
2017-06-08T04:57:21.777Z,1010.6
2017-06-08T04:58:21.784Z,1010.62
2017-06-08T04:59:21.793Z,1010.57
2017-06-08T05:00:21.802Z,1010.54
2017-06-08T05:01:21.809Z,1010.55
2017-06-08T05:02:21.819Z,1010.54
2017-06-08T05:03:21.827Z,1010.52
2017-06-08T05:04:21.835Z,1010.57
2017-06-08T05:05:21.843Z,1010.55
2017-06-08T05:06:21.883Z,1010.6
2017-06-08T05:07:21.910Z,1010.51
2017-06-08T05:08:21.867Z,1010.55
2017-06-08T05:09:21.876Z,1010.63
2017-06-08T05:10:21.885Z,1010.56
2017-06-08T05:11:21.895Z,1010.58
2017-06-08T05:12:21.951Z,1010.54
2017-06-08T05:13:21.911Z,1010.59
2017-06-08T05:14:21.920Z,1010.56
2017-06-08T05:15:21.928Z,1010.54
2017-06-08T05:16:21.986Z,1010.57
2017-06-08T05:17:21.943Z,1010.59
2017-06-08T05:18:21.954Z,1010.54
2017-06-08T05:19:21.961Z,1010.54
2017-06-08T05:20:21.969Z,1010.54
2017-06-08T05:21:21.977Z,1010.51
2017-06-08T05:22:21.986Z,1010.5
2017-06-08T05:23:21.996Z,1010.48
2017-06-08T05:24:22.003Z,1010.46
2017-06-08T05:25:22.012Z,1010.49
2017-06-08T05:26:22.017Z,1010.48
2017-06-08T05:27:22.029Z,1010.47
2017-06-08T05:28:22.036Z,1010.48
2017-06-08T05:29:22.045Z,1010.5
2017-06-08T05:30:22.051Z,1010.49
2017-06-08T05:31:22.111Z,1010.49
2017-06-08T05:32:22.070Z,1010.46
2017-06-08T05:33:22.078Z,1010.44
2017-06-08T05:34:22.085Z,1010.44
2017-06-08T05:35:22.095Z,1010.46
2017-06-08T05:36:22.103Z,1010.46
2017-06-08T05:37:22.111Z,1010.48
2017-06-08T05:38:22.118Z,1010.46
2017-06-08T05:39:22.177Z,1010.41
2017-06-08T05:40:22.140Z,1010.42
2017-06-08T05:41:22.195Z,1010.4
2017-06-08T05:42:22.152Z,1010.4
2017-06-08T05:43:22.211Z,1010.34
2017-06-08T05:44:22.168Z,1010.4
2017-06-08T05:45:22.227Z,1010.4
2017-06-08T05:46:22.187Z,1010.37
2017-06-08T05:47:22.198Z,1010.36
2017-06-08T05:48:22.203Z,1010.36
2017-06-08T05:49:22.212Z,1010.32
2017-06-08T05:50:22.220Z,1010.3
2017-06-08T05:51:22.228Z,1010.26
2017-06-08T05:52:22.236Z,1010.22
2017-06-08T05:53:22.245Z,1010.2
2017-06-08T05:54:22.254Z,1010.19
2017-06-08T05:55:22.262Z,1010.15
2017-06-08T05:56:22.269Z,1010.09
2017-06-08T05:57:22.279Z,1010.12
2017-06-08T05:58:22.286Z,1010.05
2017-06-08T05:59:22.296Z,1010.06
2017-06-08T06:00:22.303Z,1010.02
2017-06-08T06:01:22.312Z,1010.06
2017-06-08T06:02:22.323Z,1010.08
2017-06-08T06:03:22.329Z,1010.13
2017-06-08T06:04:22.337Z,1010.13
2017-06-08T06:05:22.347Z,1010.12
2017-06-08T06:06:22.355Z,1010.14
2017-06-08T06:07:22.362Z,1010.18
2017-06-08T06:08:22.372Z,1010.13
2017-06-08T06:09:22.380Z,1010.15
2017-06-08T06:10:22.387Z,1010.19
2017-06-08T06:11:22.396Z,1010.19
2017-06-08T06:12:22.456Z,1010.17
2017-06-08T06:13:22.414Z,1010.21
2017-06-08T06:14:22.421Z,1010.2
2017-06-08T06:15:22.430Z,1010.2
2017-06-08T06:16:22.438Z,1010.2
2017-06-08T06:17:22.449Z,1010.16
2017-06-08T06:18:22.454Z,1010.18
2017-06-08T06:19:22.463Z,1010.17
2017-06-08T06:20:22.472Z,1010.21
2017-06-08T06:21:22.480Z,1010.18
2017-06-08T06:22:22.488Z,1010.21
2017-06-08T06:23:22.497Z,1010.25
2017-06-08T06:24:22.506Z,1010.2
2017-06-08T06:25:22.515Z,1010.25
2017-06-08T06:26:22.524Z,1010.27
2017-06-08T06:27:22.532Z,1010.32
2017-06-08T06:28:22.541Z,1010.29
2017-06-08T06:29:22.548Z,1010.3
2017-06-08T06:30:22.557Z,1010.29
2017-06-08T06:31:22.566Z,1010.33
2017-06-08T06:32:22.574Z,1010.29
2017-06-08T06:33:22.582Z,1010.29
2017-06-08T06:34:22.591Z,1010.25
2017-06-08T06:35:22.600Z,1010.22
2017-06-08T06:36:22.608Z,1010.24
2017-06-08T06:37:22.617Z,1010.22
2017-06-08T06:38:22.675Z,1010.22
2017-06-08T06:39:22.634Z,1010.21
2017-06-08T06:40:22.641Z,1010.16
2017-06-08T06:41:22.649Z,1010.17
2017-06-08T06:42:22.659Z,1010.21
2017-06-08T06:43:22.716Z,1010.2
2017-06-08T06:44:22.676Z,1010.17
2017-06-08T06:45:22.685Z,1010.18
2017-06-08T06:46:22.694Z,1010.19
2017-06-08T06:47:22.701Z,1010.21
2017-06-08T06:48:22.713Z,1010.19
2017-06-08T06:49:22.720Z,1010.18
2017-06-08T06:50:22.728Z,1010.18
2017-06-08T06:51:22.736Z,1010.25
2017-06-08T06:52:22.744Z,1010.19
2017-06-08T06:53:22.754Z,1010.16
2017-06-08T06:54:22.760Z,1010.12
2017-06-08T06:55:22.770Z,1010.16
2017-06-08T06:56:22.779Z,1010.13
2017-06-08T06:57:22.787Z,1010.05
2017-06-08T06:58:22.796Z,1010.1
2017-06-08T06:59:22.804Z,1010.08
2017-06-08T07:00:22.812Z,1010.36
2017-06-08T07:01:22.821Z,1010.17
2017-06-08T07:02:22.879Z,1010.07
2017-06-08T07:03:22.839Z,1010.14
2017-06-08T07:04:22.846Z,1010.11
2017-06-08T07:05:22.854Z,1010.15
2017-06-08T07:06:22.865Z,1010.13
2017-06-08T07:07:22.872Z,1010.11
2017-06-08T07:08:22.881Z,1010.07
2017-06-08T07:09:22.890Z,1010.08
2017-06-08T07:10:22.901Z,1010.07
2017-06-08T07:11:22.906Z,1010.07
2017-06-08T07:12:22.913Z,1010.07
2017-06-08T07:13:22.973Z,1010.1
2017-06-08T07:14:22.931Z,1010.08
2017-06-08T07:15:22.940Z,1010
2017-06-08T07:16:23.250Z,1010.05
2017-06-08T07:17:22.957Z,1010.02
2017-06-08T07:18:23.267Z,1010.01
2017-06-08T07:19:22.973Z,1010.03
2017-06-08T07:20:23.024Z,1009.98
2017-06-08T07:21:22.992Z,1009.97
2017-06-08T07:22:23.001Z,1010.02
2017-06-08T07:23:23.007Z,1010.08
2017-06-08T07:24:23.013Z,1009.99
2017-06-08T07:25:23.020Z,1010.02
2017-06-08T07:26:23.027Z,1010.03
2017-06-08T07:27:23.034Z,1010.05
2017-06-08T07:28:23.039Z,1010.08
2017-06-08T07:29:23.047Z,1010.12
2017-06-08T07:30:23.054Z,1010.06
2017-06-08T07:31:23.057Z,1010.08
2017-06-08T07:32:23.062Z,1010.16
2017-06-08T07:33:23.067Z,1010.12
2017-06-08T07:34:23.071Z,1010.09
2017-06-08T07:35:23.074Z,1010.06
2017-06-08T07:36:23.078Z,1010.08
2017-06-08T07:37:23.085Z,1010.2
2017-06-08T07:38:23.091Z,1010.16
2017-06-08T07:39:23.095Z,1010.16
2017-06-08T07:40:23.102Z,1010.05
2017-06-08T07:41:23.109Z,1010.12
2017-06-08T07:42:23.116Z,1010.13
2017-06-08T07:43:23.122Z,1010.21
2017-06-08T07:44:23.129Z,1010.11
2017-06-08T07:45:23.136Z,1010.13
2017-06-08T07:46:23.143Z,1010.05
2017-06-08T07:47:23.199Z,1010.06
2017-06-08T07:48:23.157Z,1010.06
2017-06-08T07:49:23.166Z,1009.98
2017-06-08T07:50:23.174Z,1010.03
2017-06-08T07:51:23.184Z,1009.96
2017-06-08T07:52:23.189Z,1010
2017-06-08T07:53:23.197Z,1010.03
2017-06-08T07:54:23.204Z,1010.06
2017-06-08T07:55:23.215Z,1010
2017-06-08T07:56:23.220Z,1009.95
2017-06-08T07:57:23.228Z,1010.01
2017-06-08T07:58:23.239Z,1009.99
2017-06-08T07:59:23.247Z,1010.04
2017-06-08T08:00:23.255Z,1010.02
2017-06-08T08:01:23.264Z,1010.04
2017-06-08T08:02:23.272Z,1010.15
2017-06-08T08:03:23.280Z,1010.14
2017-06-08T08:04:23.340Z,1010.13
2017-06-08T08:05:23.298Z,1010.16
2017-06-08T08:06:23.307Z,1010.15
2017-06-08T08:07:23.316Z,1010.12
2017-06-08T08:08:23.323Z,1010.2
2017-06-08T08:09:23.333Z,1010.12
2017-06-08T08:10:23.342Z,1010.06
2017-06-08T08:11:23.350Z,1010.22
2017-06-08T08:12:23.360Z,1010.14
2017-06-08T08:13:23.368Z,1010.19
2017-06-08T08:14:23.379Z,1010.04
2017-06-08T08:15:23.385Z,1010.04
2017-06-08T08:16:23.394Z,1009.99
2017-06-08T08:17:23.454Z,1010.07
2017-06-08T08:18:23.411Z,1010.13
2017-06-08T08:19:23.422Z,1010.1
2017-06-08T08:20:23.435Z,1010.11
2017-06-08T08:21:23.439Z,1010.08
2017-06-08T08:22:23.448Z,1010.07
2017-06-08T08:23:23.458Z,1010.07
2017-06-08T08:24:23.468Z,1010.12
2017-06-08T08:25:23.475Z,1010.07
2017-06-08T08:26:23.485Z,1010.21
2017-06-08T08:27:23.528Z,1010.17
2017-06-08T08:28:23.506Z,1010.17
2017-06-08T08:29:23.512Z,1010.18
2017-06-08T08:30:23.525Z,1010.12
2017-06-08T08:31:23.532Z,1010.16
2017-06-08T08:32:23.537Z,1010.18
2017-06-08T08:33:23.547Z,1010.27
2017-06-08T08:34:23.557Z,1010.23
2017-06-08T08:35:23.617Z,1010.17
2017-06-08T08:36:23.577Z,1010.21
2017-06-08T08:37:23.585Z,1010.21
2017-06-08T08:38:23.593Z,1010.19
2017-06-08T08:39:23.604Z,1010.12
2017-06-08T08:40:23.612Z,1010.2
2017-06-08T08:41:23.670Z,1010.18
2017-06-08T08:42:23.635Z,1010.14
2017-06-08T08:43:23.640Z,1010.12
2017-06-08T08:44:23.649Z,1010.19
2017-06-08T08:45:23.662Z,1010.15
2017-06-08T08:46:23.667Z,1010.13
2017-06-08T08:47:23.728Z,1010.18
2017-06-08T08:48:23.684Z,1010.13
2017-06-08T08:49:23.694Z,1010.11
2017-06-08T08:50:23.705Z,1010.04
2017-06-08T08:51:23.762Z,1010.06
2017-06-08T08:52:23.723Z,1010.05
2017-06-08T08:53:23.732Z,1010.14
2017-06-08T08:54:23.739Z,1010.09
2017-06-08T08:55:23.750Z,1010.04
2017-06-08T08:56:23.758Z,1010.15
2017-06-08T08:57:23.768Z,1010.12
2017-06-08T08:58:23.777Z,1010.09
2017-06-08T08:59:23.787Z,1010.08
2017-06-08T09:00:23.797Z,1010.1
2017-06-08T09:01:23.857Z,1010.06
2017-06-08T09:02:23.814Z,1010.07
2017-06-08T09:03:23.842Z,1010.06
2017-06-08T09:04:23.902Z,1009.98
2017-06-08T09:05:23.852Z,1010.06
2017-06-08T09:06:23.871Z,1010.02
2017-06-08T09:07:23.928Z,1010.1
2017-06-08T09:08:23.880Z,1010.03
2017-06-08T09:09:23.946Z,1009.99
2017-06-08T09:10:23.966Z,1010
2017-06-08T09:11:23.897Z,1010.05
2017-06-08T09:12:23.909Z,1009.96
2017-06-08T09:13:23.917Z,1010.05
2017-06-08T09:14:23.923Z,1009.98
2017-06-08T09:15:23.932Z,1010.05
2017-06-08T09:16:23.941Z,1009.94
2017-06-08T09:17:24.000Z,1009.97
2017-06-08T09:18:23.958Z,1009.97
2017-06-08T09:19:23.968Z,1010.04
2017-06-08T09:20:23.977Z,1009.97
2017-06-08T09:21:23.986Z,1009.96
2017-06-08T09:22:23.995Z,1009.97
2017-06-08T09:23:24.004Z,1010.01
2017-06-08T09:24:24.011Z,1009.98
2017-06-08T09:25:24.071Z,1009.88
2017-06-08T09:26:24.030Z,1010.01
2017-06-08T09:27:24.038Z,1009.97
2017-06-08T09:28:24.047Z,1009.98
2017-06-08T09:29:24.055Z,1009.87
2017-06-08T09:30:24.065Z,1009.91
2017-06-08T09:31:24.073Z,1009.92
2017-06-08T09:32:24.083Z,1010
2017-06-08T09:33:24.091Z,1009.84
2017-06-08T09:34:24.100Z,1009.94
2017-06-08T09:35:24.109Z,1009.91
2017-06-08T09:36:24.117Z,1009.94
2017-06-08T09:37:24.126Z,1009.9
2017-06-08T09:38:24.134Z,1009.91
2017-06-08T09:39:24.143Z,1009.94
2017-06-08T09:40:24.453Z,1009.88
2017-06-08T09:41:24.161Z,1009.87
2017-06-08T09:42:24.169Z,1009.92
2017-06-08T09:43:24.178Z,1009.91
2017-06-08T09:44:24.186Z,1009.97
2017-06-08T09:45:24.196Z,1009.96
2017-06-08T09:46:24.256Z,1010
2017-06-08T09:47:24.215Z,1009.98
2017-06-08T09:48:24.222Z,1009.91
2017-06-08T09:49:24.231Z,1009.94
2017-06-08T09:50:24.242Z,1009.86
2017-06-08T09:51:24.253Z,1009.89
2017-06-08T09:52:24.311Z,1009.89
2017-06-08T09:53:24.270Z,1009.94
2017-06-08T09:54:24.328Z,1010.05
2017-06-08T09:55:24.337Z,1009.89
2017-06-08T09:56:24.297Z,1009.86
2017-06-08T09:57:24.307Z,1009.86
2017-06-08T09:58:24.315Z,1009.93
2017-06-08T09:59:24.325Z,1009.95
2017-06-08T10:00:24.334Z,1009.88
2017-06-08T10:01:24.391Z,1009.95
2017-06-08T10:02:24.413Z,1009.88
2017-06-08T10:03:24.364Z,1009.87
2017-06-08T10:04:24.372Z,1009.74
2017-06-08T10:05:24.382Z,1009.79
2017-06-08T10:06:24.388Z,1009.88
2017-06-08T10:07:24.397Z,1009.75
2017-06-08T10:08:24.405Z,1009.82
2017-06-08T10:09:24.419Z,1009.69
2017-06-08T10:10:24.478Z,1009.78
2017-06-08T10:11:24.636Z,1009.78
2017-06-08T10:12:24.441Z,1009.78
2017-06-08T10:13:24.449Z,1009.69
2017-06-08T10:14:24.460Z,1009.69
2017-06-08T10:15:24.468Z,1009.68
2017-06-08T10:16:24.528Z,1009.67
2017-06-08T10:17:24.487Z,1009.77
2017-06-08T10:18:24.547Z,1009.79
2017-06-08T10:19:24.506Z,1009.73
2017-06-08T10:20:24.515Z,1009.7
2017-06-08T10:21:24.523Z,1009.73
2017-06-08T10:22:24.533Z,1009.69
2017-06-08T10:23:24.542Z,1009.67
2017-06-08T10:24:24.551Z,1009.68
2017-06-08T10:25:24.561Z,1009.65
2017-06-08T10:26:24.568Z,1009.65
2017-06-08T10:27:24.577Z,1009.57
2017-06-08T10:28:24.587Z,1009.63
2017-06-08T10:29:24.596Z,1009.5
2017-06-08T10:30:24.604Z,1009.56
2017-06-08T10:31:24.614Z,1009.49
2017-06-08T10:32:24.625Z,1009.57
2017-06-08T10:33:24.632Z,1009.6
2017-06-08T10:34:24.642Z,1009.52
2017-06-08T10:35:24.653Z,1009.65
2017-06-08T10:36:24.662Z,1009.59
2017-06-08T10:37:24.669Z,1009.54
2017-06-08T10:38:24.678Z,1009.61
2017-06-08T10:39:24.689Z,1009.6
2017-06-08T10:40:24.745Z,1009.57
2017-06-08T10:41:24.706Z,1009.59
2017-06-08T10:42:24.766Z,1009.6
2017-06-08T10:43:24.724Z,1009.54
2017-06-08T10:44:24.732Z,1009.5
2017-06-08T10:45:24.743Z,1009.46
2017-06-08T10:46:24.751Z,1009.48
2017-06-08T10:47:24.762Z,1009.53
2017-06-08T10:48:24.819Z,1009.48
2017-06-08T10:49:24.779Z,1009.53
2017-06-08T10:50:24.788Z,1009.57
2017-06-08T10:51:24.797Z,1009.69
2017-06-08T10:52:24.805Z,1009.56
2017-06-08T10:53:24.816Z,1009.49
2017-06-08T10:54:24.825Z,1009.47
2017-06-08T10:55:24.833Z,1009.52
2017-06-08T10:56:24.843Z,1009.54
2017-06-08T10:57:24.851Z,1009.45
2017-06-08T10:58:24.863Z,1009.5
2017-06-08T10:59:24.871Z,1009.45
2017-06-08T11:00:24.880Z,1009.37
2017-06-08T11:01:24.890Z,1009.41
2017-06-08T11:02:24.897Z,1009.37
2017-06-08T11:03:24.907Z,1009.31
2017-06-08T11:04:24.967Z,1009.44
2017-06-08T11:05:24.926Z,1009.37
2017-06-08T11:06:24.933Z,1009.42
2017-06-08T11:07:24.943Z,1009.44
2017-06-08T11:08:24.953Z,1009.41
2017-06-08T11:09:24.962Z,1009.38
2017-06-08T11:10:24.972Z,1009.52
2017-06-08T11:11:24.981Z,1009.37
2017-06-08T11:12:24.991Z,1009.32
2017-06-08T11:13:24.999Z,1009.32
2017-06-08T11:14:25.008Z,1009.35
2017-06-08T11:15:25.018Z,1009.34
2017-06-08T11:16:25.027Z,1009.25
2017-06-08T11:17:25.037Z,1009.31
2017-06-08T11:18:25.045Z,1009.37
2017-06-08T11:19:25.107Z,1009.33
2017-06-08T11:20:25.066Z,1009.21
2017-06-08T11:21:25.072Z,1009.33
2017-06-08T11:22:25.134Z,1009.26
2017-06-08T11:23:25.093Z,1009.22
2017-06-08T11:24:25.101Z,1009.12
2017-06-08T11:25:25.110Z,1009.17
2017-06-08T11:26:25.128Z,1009.2
2017-06-08T11:27:25.129Z,1009.19
2017-06-08T11:28:25.137Z,1009.21
2017-06-08T11:29:25.148Z,1009.17
2017-06-08T11:30:25.157Z,1009.16
2017-06-08T11:31:25.166Z,1009.13
2017-06-08T11:32:25.176Z,1009.13
2017-06-08T11:33:25.235Z,1009.19
2017-06-08T11:34:25.195Z,1009.13
2017-06-08T11:35:25.204Z,1009.11
2017-06-08T11:36:25.213Z,1009.19
2017-06-08T11:37:25.223Z,1009.22
2017-06-08T11:38:25.233Z,1009.19
2017-06-08T11:39:25.241Z,1009.12
2017-06-08T11:40:25.253Z,1009.18
2017-06-08T11:41:25.261Z,1009.13
2017-06-08T11:42:25.270Z,1009.15
2017-06-08T11:43:25.279Z,1009.05
2017-06-08T11:44:25.290Z,1009.04
2017-06-08T11:45:25.299Z,1008.98
2017-06-08T11:46:25.307Z,1008.91
2017-06-08T11:47:25.315Z,1008.99
2017-06-08T11:48:25.326Z,1009.04
2017-06-08T11:49:25.336Z,1008.96
2017-06-08T11:50:25.343Z,1008.95
2017-06-08T11:51:25.353Z,1008.97
2017-06-08T11:52:25.363Z,1008.95
2017-06-08T11:53:25.371Z,1009.06
2017-06-08T11:54:25.380Z,1009.03
2017-06-08T11:55:25.392Z,1008.97
2017-06-08T11:56:25.400Z,1009
2017-06-08T11:57:25.408Z,1008.96
2017-06-08T11:58:25.419Z,1009.02
2017-06-08T11:59:25.428Z,1008.99
2017-06-08T12:00:25.437Z,1008.95
2017-06-08T12:01:25.444Z,1008.98
2017-06-08T12:02:25.455Z,1008.89
2017-06-08T12:03:25.515Z,1008.95
2017-06-08T12:04:25.474Z,1008.87
2017-06-08T12:05:25.482Z,1008.87
2017-06-08T12:06:25.491Z,1008.86
2017-06-08T12:07:25.501Z,1008.8
2017-06-08T12:08:25.510Z,1008.85